Time,TemperatureF,DewpointF,PressureIn,WindDirection,WindDirectionDegrees,WindSpeedMPH,WindSpeedGustMPH,Humidity,HourlyPrecipIn,Conditions,Clouds,dailyrainin,SoftwareType,DateUTC
2013-03-13 00:02:00,36.0,36.0,-100.00,North,-999,-999.0,-999.0,101,-99.99,,,-99.99,,2013-03-13 07:02:00,
2013-03-13 00:22:00,34.0,34.0,-100.00,North,-999,-999.0,-999.0,101,-99.99,,,-99.99,,2013-03-13 07:22:00,
2013-03-13 00:52:00,35.0,35.0,-100.00,North,-999,-999.0,-999.0,101,-99.99,,,-99.99,,2013-03-13 07:52:00,
2013-03-13 01:03:00,36.0,36.0,-100.00,North,-999,-999.0,-999.0,101,-99.99,,,-99.99,,2013-03-13 08:03:00,
2013-03-13 01:22:00,34.0,34.0,-100.00,North,-999,-999.0,-999.0,101,-99.99,,,-99.99,,2013-03-13 08:22:00,
2013-03-13 01:52:00,35.0,35.0,-100.00,North,-999,-999.0,-999.0,101,-99.99,,,-99.99,,2013-03-13 08:52:00,
2013-03-13 02:02:00,35.0,35.0,-100.00,North,-999,-999.0,-999.0,101,-99.99,,,-99.99,,2013-03-13 09:02:00,
2013-03-13 02:22:00,35.0,35.0,-100.00,North,-999,-999.0,-999.0,101,-99.99,,,-99.99,,2013-03-13 09:22:00,
2013-03-13 02:32:00,35.0,35.0,-100.00,North,-999,-999.0,-999.0,101,-99.99,,,-99.99,,2013-03-13 09:32:00,
2013-03-13 02:52:00,37.0,35.0,-100.00,North,-999,-999.0,-999.0,90,-99.99,,,-99.99,,2013-03-13 09:52:00,
2013-03-13 03:02:00,34.0,34.0,-100.00,North,-999,-999.0,-999.0,101,-99.99,,,-99.99,,2013-03-13 10:02:00,
2013-03-13 03:32:00,35.0,35.0,-100.00,North,-999,-999.0,-999.0,101,-99.99,,,-99.99,,2013-03-13 10:32:00,
2013-03-13 03:52:00,37.0,37.0,-100.00,North,-999,-999.0,-999.0,101,-99.99,,,-99.99,,2013-03-13 10:52:00,
2013-03-13 04:02:00,37.0,35.0,-100.00,North,-999,-999.0,-999.0,94,-99.99,,,-99.99,,2013-03-13 11:02:00,
2013-03-13 04:22:00,37.0,36.0,-100.00,North,-999,-999.0,-999.0,97,-99.99,,,-99.99,,2013-03-13 11:22:00,
2013-03-13 04:52:00,37.0,37.0,-100.00,North,-999,-999.0,-999.0,101,-99.99,,,-99.99,,2013-03-13 11:52:00,
2013-03-13 05:32:00,37.0,37.0,-100.00,North,-999,-999.0,-999.0,101,-99.99,,,-99.99,,2013-03-13 12:32:00,
2013-03-13 06:02:00,36.0,36.0,-100.00,North,-999,-999.0,-999.0,101,-99.99,,,-99.99,,2013-03-13 13:02:00,
2013-03-13 06:22:00,37.0,37.0,-100.00,North,-999,-999.0,-999.0,101,-99.99,,,-99.99,,2013-03-13 13:22:00,
2013-03-13 06:32:00,37.0,37.0,-100.00,North,-999,-999.0,-999.0,101,-99.99,,,-99.99,,2013-03-13 13:32:00,
2013-03-13 06:52:00,35.0,35.0,-100.00,North,-999,-999.0,-999.0,101,-99.99,,,-99.99,,2013-03-13 13:52:00,
2013-03-13 07:02:00,36.0,36.0,-100.00,North,-999,-999.0,-999.0,101,-99.99,,,-99.99,,2013-03-13 14:02:00,
2013-03-13 07:21:00,36.0,36.0,-100.00,North,-999,-999.0,-999.0,101,-99.99,,,-99.99,,2013-03-13 14:21:00,
2013-03-13 07:22:00,35.0,35.0,-100.00,North,-999,-999.0,-999.0,101,-99.99,,,-99.99,,2013-03-13 14:22:00,
2013-03-13 07:33:00,35.0,35.0,-100.00,North,-999,-999.0,-999.0,101,-99.99,,,-99.99,,2013-03-13 14:33:00,
2013-03-13 07:52:00,35.0,35.0,-100.00,North,-999,-999.0,-999.0,101,-99.99,,,-99.99,,2013-03-13 14:52:00,
2013-03-13 08:03:00,35.0,35.0,-100.00,North,-999,-999.0,-999.0,101,-99.99,,,-99.99,,2013-03-13 15:03:00,
2013-03-13 08:32:00,35.0,35.0,-100.00,North,-999,-999.0,-999.0,101,-99.99,,,-99.99,,2013-03-13 15:32:00,
2013-03-13 08:52:00,40.0,40.0,-100.00,North,-999,-999.0,-999.0,101,-99.99,,,-99.99,,2013-03-13 15:52:00,
2013-03-13 09:02:00,35.0,35.0,-100.00,North,-999,-999.0,-999.0,101,-99.99,,,-99.99,,2013-03-13 16:02:00,
2013-03-13 09:22:00,44.0,38.0,-100.00,North,-999,-999.0,-999.0,80,-99.99,,,-99.99,,2013-03-13 16:22:00,
2013-03-13 09:32:00,39.0,39.0,-100.00,North,-999,-999.0,-999.0,101,-99.99,,,-99.99,,2013-03-13 16:32:00,
2013-03-13 09:52:00,45.0,38.0,-100.00,North,-999,-999.0,-999.0,76,-99.99,,,-99.99,,2013-03-13 16:52:00,
2013-03-13 10:02:00,43.0,40.0,-100.00,North,-999,-999.0,-999.0,92,-99.99,,,-99.99,,2013-03-13 17:02:00,
2013-03-13 10:32:00,44.0,39.0,-100.00,North,-999,-999.0,-999.0,81,-99.99,,,-99.99,,2013-03-13 17:32:00,
2013-03-13 11:02:00,46.0,38.0,-100.00,North,-999,-999.0,-999.0,72,-99.99,,,-99.99,,2013-03-13 18:02:00,
2013-03-13 11:22:00,46.0,38.0,-100.00,North,-999,-999.0,-999.0,71,-99.99,,,-99.99,,2013-03-13 18:22:00,
2013-03-13 11:33:00,47.0,36.0,-100.00,North,-999,-999.0,-999.0,67,-99.99,,,-99.99,,2013-03-13 18:33:00,
2013-03-13 11:51:00,49.0,35.0,-100.00,North,-999,-999.0,-999.0,57,-99.99,,,-99.99,,2013-03-13 18:51:00,
2013-03-13 12:02:00,48.0,36.0,-100.00,North,-999,-999.0,-999.0,62,-99.99,,,-99.99,,2013-03-13 19:02:00,
2013-03-13 12:22:00,50.0,36.0,-100.00,North,-999,-999.0,-999.0,58,-99.99,,,-99.99,,2013-03-13 19:22:00,
2013-03-13 12:32:00,48.0,38.0,-100.00,North,-999,-999.0,-999.0,67,-99.99,,,-99.99,,2013-03-13 19:32:00,
2013-03-13 13:02:00,50.0,36.0,-100.00,North,-999,-999.0,-999.0,59,-99.99,,,-99.99,,2013-03-13 20:02:00,
2013-03-13 13:32:00,51.0,33.0,-100.00,North,-999,-999.0,-999.0,49,-99.99,,,-99.99,,2013-03-13 20:32:00,
2013-03-13 13:52:00,52.0,35.0,-100.00,North,-999,-999.0,-999.0,52,-99.99,,,-99.99,,2013-03-13 20:52:00,
2013-03-13 14:02:00,53.0,35.0,-100.00,North,-999,-999.0,-999.0,51,-99.99,,,-99.99,,2013-03-13 21:02:00,
2013-03-13 14:22:00,57.0,36.0,-100.00,North,-999,-999.0,-999.0,45,-99.99,,,-99.99,,2013-03-13 21:22:00,
2013-03-13 14:33:00,55.0,38.0,-100.00,North,-999,-999.0,-999.0,53,-99.99,,,-99.99,,2013-03-13 21:33:00,
2013-03-13 15:02:00,56.0,35.0,-100.00,North,-999,-999.0,-999.0,45,-99.99,,,-99.99,,2013-03-13 22:02:00,
2013-03-13 15:22:00,57.0,37.0,-100.00,North,-999,-999.0,-999.0,46,-99.99,,,-99.99,,2013-03-13 22:22:00,
2013-03-13 15:32:00,56.0,37.0,-100.00,North,-999,-999.0,-999.0,48,-99.99,,,-99.99,,2013-03-13 22:32:00,
2013-03-13 15:52:00,56.0,36.0,-100.00,North,-999,-999.0,-999.0,46,-99.99,,,-99.99,,2013-03-13 22:52:00,
2013-03-13 16:22:00,52.0,44.0,-100.00,North,-999,-999.0,-999.0,74,-99.99,,,-99.99,,2013-03-13 23:22:00,
2013-03-13 16:32:00,56.0,39.0,-100.00,North,-999,-999.0,-999.0,53,-99.99,,,-99.99,,2013-03-13 23:32:00,
2013-03-13 16:52:00,54.0,42.0,-100.00,North,-999,-999.0,-999.0,65,-99.99,,,-99.99,,2013-03-13 23:52:00,
2013-03-13 17:02:00,53.0,44.0,-100.00,North,-999,-999.0,-999.0,71,-99.99,,,-99.99,,2013-03-14 00:02:00,
2013-03-13 17:32:00,52.0,45.0,-100.00,North,-999,-999.0,-999.0,75,-99.99,,,-99.99,,2013-03-14 00:32:00,
2013-03-13 18:02:00,51.0,45.0,-100.00,North,-999,-999.0,-999.0,80,-99.99,,,-99.99,,2013-03-14 01:02:00,
2013-03-13 18:22:00,50.0,45.0,-100.00,North,-999,-999.0,-999.0,82,-99.99,,,-99.99,,2013-03-14 01:22:00,
2013-03-13 18:32:00,49.0,45.0,-100.00,North,-999,-999.0,-999.0,84,-99.99,,,-99.99,,2013-03-14 01:32:00,
2013-03-13 19:02:00,46.0,43.0,-100.00,North,-999,-999.0,-999.0,90,-99.99,,,-99.99,,2013-03-14 02:02:00,
2013-03-13 19:22:00,40.0,40.0,-100.00,North,-999,-999.0,-999.0,98,-99.99,,,-99.99,,2013-03-14 02:22:00,
2013-03-13 19:32:00,43.0,42.0,-100.00,North,-999,-999.0,-999.0,95,-99.99,,,-99.99,,2013-03-14 02:32:00,
2013-03-13 19:52:00,40.0,39.0,-100.00,North,-999,-999.0,-999.0,99,-99.99,,,-99.99,,2013-03-14 02:52:00,
2013-03-13 20:01:00,41.0,40.0,-100.00,North,-999,-999.0,-999.0,96,-99.99,,,-99.99,,2013-03-14 03:01:00,
2013-03-13 20:21:00,40.0,40.0,-100.00,North,-999,-999.0,-999.0,101,-99.99,,,-99.99,,2013-03-14 03:21:00,
2013-03-13 20:32:00,40.0,39.0,-100.00,North,-999,-999.0,-999.0,98,-99.99,,,-99.99,,2013-03-14 03:32:00,
2013-03-13 20:52:00,39.0,39.0,-100.00,North,-999,-999.0,-999.0,101,-99.99,,,-99.99,,2013-03-14 03:52:00,
2013-03-13 21:22:00,40.0,40.0,-100.00,North,-999,-999.0,-999.0,101,-99.99,,,-99.99,,2013-03-14 04:22:00,
2013-03-13 21:32:00,40.0,40.0,-100.00,North,-999,-999.0,-999.0,101,-99.99,,,-99.99,,2013-03-14 04:32:00,
2013-03-13 21:51:00,39.0,39.0,-100.00,North,-999,-999.0,-999.0,101,-99.99,,,-99.99,,2013-03-14 04:51:00,
2013-03-13 22:02:00,39.0,39.0,-100.00,North,-999,-999.0,-999.0,101,-99.99,,,-99.99,,2013-03-14 05:02:00,
2013-03-13 22:22:00,40.0,40.0,-100.00,North,-999,-999.0,-999.0,101,-99.99,,,-99.99,,2013-03-14 05:22:00,
2013-03-13 22:33:00,39.0,39.0,-100.00,North,-999,-999.0,-999.0,101,-99.99,,,-99.99,,2013-03-14 05:33:00,
2013-03-13 22:51:00,39.0,39.0,-100.00,North,-999,-999.0,-999.0,101,-99.99,,,-99.99,,2013-03-14 05:51:00,
2013-03-13 23:21:00,39.0,39.0,-100.00,North,-999,-999.0,-999.0,101,-99.99,,,-99.99,,2013-03-14 06:21:00,
2013-03-13 23:32:00,39.0,39.0,-100.00,North,-999,-999.0,-999.0,101,-99.99,,,-99.99,,2013-03-14 06:32:00,
2013-03-13 23:52:00,38.0,38.0,-100.00,North,-999,-999.0,-999.0,101,-99.99,,,-99.99,,2013-03-14 06:52:00,